Time;durP1;ratioP1;P1;durP2;ratioP2;P2;SDS_P1;SDS_P2;PMS_P1;PMS_P2;Temp;Humidity;BMP_temperature;BMP_pressure;BME280_temperature;BME280_humidity;BME280_pressure;Samples;Min_cycle;Max_cycle;Signal;HPM_P1;HPM_P2
2022/04/27 00:02:10;;;;;;;18.17;13.33;;;15.50;99.90;;;;;;5037569;28;20762;-91
2022/04/27 00:04:36;;;;;;;16.40;12.10;;;15.50;99.90;;;;;;5037819;28;20278;-91
2022/04/27 00:07:04;;;;;;;18.30;12.70;;;15.50;99.90;;;;;;5039365;28;20482;-88
2022/04/27 00:09:30;;;;;;;14.30;11.50;;;15.50;99.90;;;;;;5039061;28;20470;-91
2022/04/27 00:12:00;;;;;;;21.40;13.60;;;15.50;99.90;;;;;;5056979;28;20443;-88
2022/04/27 00:14:30;;;;;;;18.80;12.27;;;15.50;99.90;;;;;;5057465;28;20497;-88
2022/04/27 00:16:57;;;;;;;21.40;14.93;;;15.50;99.90;;;;;;5021547;28;20471;-91
2022/04/27 00:19:24;;;;;;;19.33;14.00;;;15.50;99.90;;;;;;5022761;28;20401;-88
2022/04/27 00:21:50;;;;;;;17.60;12.30;;;15.50;99.90;;;;;;4996987;28;20491;-88
2022/04/27 00:24:16;;;;;;;17.70;12.23;;;15.50;99.90;;;;;;5014145;28;20897;-88
2022/04/27 00:26:41;;;;;;;20.13;13.13;;;15.50;99.90;;;;;;5014115;28;20187;-92
2022/04/27 00:29:07;;;;;;;18.77;12.43;;;15.50;99.90;;;;;;5015894;28;20468;-90
2022/04/27 00:31:33;;;;;;;13.50;10.47;;;15.50;99.90;;;;;;5015719;28;20183;-88
2022/04/27 00:34:00;;;;;;;16.53;10.17;;;15.50;99.90;;;;;;5013655;28;20423;-91
2022/04/27 00:36:27;;;;;;;12.70;8.50;;;15.50;99.90;;;;;;5013990;28;20187;-87
2022/04/27 00:38:53;;;;;;;10.27;7.50;;;15.40;99.90;;;;;;5014595;28;20409;-88
2022/04/27 00:41:19;;;;;;;9.93;8.10;;;15.40;99.90;;;;;;5015480;28;20481;-88
2022/04/27 00:43:44;;;;;;;8.80;7.10;;;15.40;99.90;;;;;;5014988;28;20209;-90
2022/04/27 00:46:11;;;;;;;11.73;7.60;;;15.30;99.90;;;;;;5014447;28;20191;-91
2022/04/27 00:48:41;;;;;;;9.50;7.00;;;15.30;99.90;;;;;;5014559;28;20294;-88
2022/04/27 00:51:10;;;;;;;10.83;8.03;;;15.20;99.90;;;;;;5015039;28;20457;-91
2022/04/27 00:53:37;;;;;;;9.00;6.73;;;15.20;99.90;;;;;;5016929;28;20918;-88
2022/04/27 00:56:03;;;;;;;11.03;6.90;;;15.10;99.90;;;;;;5016006;28;20523;-91
2022/04/27 00:58:29;;;;;;;9.60;6.27;;;15.10;99.90;;;;;;5016515;28;20433;-88
2022/04/27 01:00:55;;;;;;;13.67;8.83;;;15.00;99.90;;;;;;5015705;28;20424;-90
2022/04/27 01:03:23;;;;;;;10.60;7.10;;;15.00;99.90;;;;;;5014347;28;20507;-91
2022/04/27 01:05:49;;;;;;;11.00;7.40;;;15.00;99.90;;;;;;5014759;28;20516;-88
2022/04/27 01:08:21;;;;;;;9.80;6.70;;;14.90;99.90;;;;;;5030310;28;20449;-88
2022/04/27 01:10:47;;;;;;;8.23;6.17;;;14.90;99.90;;;;;;5025893;28;20494;-88
2022/04/27 01:13:14;;;;;;;8.57;6.17;;;14.90;99.90;;;;;;5035718;28;20920;-88
2022/04/27 01:15:40;;;;;;;9.90;6.40;;;14.90;99.90;;;;;;5053120;28;20431;-86
2022/04/27 01:18:08;;;;;;;8.60;5.87;;;14.80;99.90;;;;;;5037593;28;20499;-90
2022/04/27 01:20:44;;;;;;;10.50;7.70;;;14.90;99.90;;;;;;5055948;28;20553;-91
2022/04/27 01:23:12;;;;;;;10.73;7.33;;;14.80;99.90;;;;;;5038911;28;20479;-88
2022/04/27 01:25:48;;;;;;;11.50;6.60;;;14.80;99.90;;;;;;5044300;28;20919;-91
2022/04/27 01:28:19;;;;;;;11.17;6.43;;;14.80;99.90;;;;;;5035100;28;20555;-91
2022/04/27 01:30:45;;;;;;;10.03;5.83;;;14.80;99.90;;;;;;5035487;28;20442;-88
2022/04/27 01:33:12;;;;;;;10.93;7.20;;;14.80;99.90;;;;;;5035432;28;20439;-91
2022/04/27 01:35:38;;;;;;;8.70;6.07;;;14.80;99.90;;;;;;5034912;28;20483;-88
2022/04/27 01:38:04;;;;;;;9.90;6.00;;;14.80;99.90;;;;;;5034821;28;20445;-90
2022/04/27 01:40:30;;;;;;;7.93;6.00;;;14.80;99.90;;;;;;5052754;28;20476;-91
2022/04/27 01:42:56;;;;;;;9.07;5.93;;;14.80;99.90;;;;;;5052697;28;20954;-88
2022/04/27 01:45:21;;;;;;;10.37;5.20;;;14.80;99.90;;;;;;5035170;28;20418;-90
2022/04/27 01:47:48;;;;;;;6.90;5.57;;;14.80;99.90;;;;;;5034801;28;20197;-88
2022/04/27 01:50:13;;;;;;;8.13;5.63;;;14.80;99.90;;;;;;5034505;28;20237;-88
2022/04/27 01:55:25;;;;;;;5.27;4.37;;;14.80;99.90;;;;;;5063242;28;20194;-91
2022/04/27 01:57:53;;;;;;;9.57;4.93;;;14.80;99.90;;;;;;5052809;28;20434;-91
2022/04/27 02:00:20;;;;;;;6.70;5.50;;;14.90;99.90;;;;;;5035691;28;20190;-90
2022/04/27 02:02:46;;;;;;;6.83;4.90;;;14.90;99.90;;;;;;5052901;28;20430;-91
2022/04/27 02:05:12;;;;;;;7.73;5.30;;;14.90;99.90;;;;;;5053519;28;20459;-88
2022/04/27 02:07:37;;;;;;;6.50;4.20;;;14.90;99.90;;;;;;5054456;28;20194;-91
2022/04/27 02:10:05;;;;;;;5.87;4.73;;;14.90;99.90;;;;;;5031931;28;20245;-90
2022/04/27 02:12:31;;;;;;;6.23;4.80;;;14.90;99.90;;;;;;5101597;28;20206;-92
2022/04/27 02:14:57;;;;;;;6.67;4.17;;;14.90;99.90;;;;;;5102962;28;20926;-92
2022/04/27 02:17:22;;;;;;;6.47;5.60;;;14.90;99.90;;;;;;5083309;28;20199;-91
2022/04/27 02:19:48;;;;;;;7.40;4.90;;;14.90;99.90;;;;;;5081792;28;20244;-88
2022/04/27 02:22:14;;;;;;;6.00;5.07;;;14.90;99.90;;;;;;5014392;28;20230;-91
2022/04/27 02:24:39;;;;;;;7.87;4.93;;;14.90;99.90;;;;;;5014396;28;20195;-88
2022/04/27 02:27:05;;;;;;;6.30;5.07;;;14.90;99.90;;;;;;5014901;28;20588;-88
2022/04/27 02:29:31;;;;;;;6.67;4.80;;;14.90;99.90;;;;;;5013426;28;20218;-87
2022/04/27 02:31:57;;;;;;;6.10;5.47;;;14.90;99.90;;;;;;5081020;28;20456;-91
2022/04/27 02:34:22;;;;;;;7.23;5.43;;;14.90;99.90;;;;;;5081989;28;20187;-88
2022/04/27 02:36:48;;;;;;;6.80;4.37;;;14.90;99.90;;;;;;5015357;28;20191;-91
2022/04/27 02:39:14;;;;;;;6.57;4.50;;;14.90;99.90;;;;;;5083995;28;20228;-90
2022/04/27 02:41:41;;;;;;;8.83;5.33;;;14.90;99.90;;;;;;5083565;28;20180;-91
2022/04/27 02:44:07;;;;;;;8.63;5.63;;;14.90;99.90;;;;;;5082854;28;20179;-91
2022/04/27 02:46:33;;;;;;;8.40;5.77;;;14.80;99.90;;;;;;5015011;28;20433;-88
2022/04/27 02:51:48;;;;;;;6.73;4.60;;;14.80;99.90;;;;;;5015429;28;20268;-91
2022/04/27 02:54:15;;;;;;;6.90;4.80;;;14.80;99.90;;;;;;5015077;28;20441;-87
2022/04/27 02:56:42;;;;;;;6.00;4.30;;;14.70;99.90;;;;;;5082386;28;20473;-89
2022/04/27 02:59:08;;;;;;;8.23;5.43;;;14.70;99.90;;;;;;5082298;28;20487;-88
2022/04/27 03:01:34;;;;;;;7.00;4.83;;;14.70;99.90;;;;;;5084064;28;20436;-88
2022/04/27 03:04:00;;;;;;;6.87;5.03;;;14.60;99.90;;;;;;5086688;28;20993;-90
2022/04/27 03:06:26;;;;;;;6.17;4.87;;;14.60;99.90;;;;;;5092700;28;20432;-90
2022/04/27 03:08:51;;;;;;;6.77;4.90;;;14.50;99.90;;;;;;5020398;28;20222;-89
2022/04/27 03:11:17;;;;;;;8.90;6.20;;;14.50;99.90;;;;;;5106591;28;20261;-91
2022/04/27 03:13:43;;;;;;;5.20;4.53;;;14.60;99.90;;;;;;5105162;28;20278;-91
2022/04/27 03:16:09;;;;;;;6.37;4.37;;;14.50;99.90;;;;;;5120040;28;20212;-91
2022/04/27 03:18:35;;;;;;;7.83;4.60;;;14.40;99.90;;;;;;5114570;28;20191;-91
2022/04/27 03:21:01;;;;;;;6.30;4.97;;;14.40;99.90;;;;;;5097227;28;20416;-88
2022/04/27 03:23:28;;;;;;;6.87;5.67;;;14.40;99.90;;;;;;5097000;28;20846;-88
2022/04/27 03:25:54;;;;;;;6.80;5.47;;;14.40;99.90;;;;;;5097681;28;20205;-88
2022/04/27 03:28:20;;;;;;;6.40;4.93;;;14.40;99.90;;;;;;5097104;28;20948;-90
2022/04/27 03:30:47;;;;;;;8.33;6.20;;;14.40;99.90;;;;;;5116686;28;20416;-90
2022/04/27 03:33:13;;;;;;;6.20;4.70;;;14.50;99.90;;;;;;5116498;28;20255;-88
2022/04/27 03:35:39;;;;;;;6.80;5.80;;;14.50;99.90;;;;;;5098252;28;20447;-88
2022/04/27 03:38:07;;;;;;;8.17;5.33;;;14.50;99.90;;;;;;5098047;28;20195;-91
2022/04/27 03:40:33;;;;;;;6.30;4.30;;;14.50;99.90;;;;;;5097612;28;20179;-88
2022/04/27 03:42:58;;;;;;;6.30;5.10;;;14.60;99.90;;;;;;5114960;28;20461;-91
2022/04/27 03:45:24;;;;;;;6.10;4.50;;;14.60;99.90;;;;;;5097703;28;20218;-91
2022/04/27 03:47:50;;;;;;;6.80;5.37;;;14.50;99.90;;;;;;5097109;28;20187;-88
2022/04/27 03:50:16;;;;;;;9.90;7.60;;;14.50;99.90;;;;;;5115499;28;20467;-88
2022/04/27 03:52:42;;;;;;;11.07;7.50;;;14.40;99.90;;;;;;5115928;28;20199;-89
2022/04/27 03:55:08;;;;;;;7.07;4.80;;;14.30;99.90;;;;;;5097245;28;20563;-91
2022/04/27 03:57:34;;;;;;;7.60;4.63;;;14.30;99.90;;;;;;5117219;28;20428;-92
2022/04/27 04:00:00;;;;;;;6.70;5.40;;;14.20;99.90;;;;;;5115294;28;20396;-91
2022/04/27 04:02:25;;;;;;;8.30;4.90;;;14.20;99.90;;;;;;5098766;28;20439;-88
2022/04/27 04:04:51;;;;;;;7.90;5.17;;;14.20;99.90;;;;;;5098858;28;20266;-88
2022/04/27 04:07:17;;;;;;;6.40;4.83;;;14.10;99.90;;;;;;5117120;28;20203;-88
2022/04/27 04:09:43;;;;;;;4.77;4.20;;;14.10;99.90;;;;;;5088186;28;20467;-91
2022/04/27 04:12:09;;;;;;;10.07;5.40;;;14.10;99.90;;;;;;5024161;28;20255;-91
2022/04/27 04:14:36;;;;;;;8.20;5.17;;;14.10;99.90;;;;;;5013139;28;20202;-88
2022/04/27 04:17:03;;;;;;;6.73;4.47;;;14.10;99.90;;;;;;5027502;28;20458;-91
2022/04/27 04:19:29;;;;;;;8.87;5.40;;;14.10;99.90;;;;;;5032966;28;20422;-88
2022/04/27 04:21:55;;;;;;;7.27;4.80;;;14.10;99.90;;;;;;5033183;28;20450;-91
2022/04/27 04:24:20;;;;;;;5.77;4.70;;;14.10;99.90;;;;;;5033259;28;20263;-90
2022/04/27 04:29:31;;;;;;;10.50;5.90;;;14.10;99.90;;;;;;5051822;28;20215;-91
2022/04/27 04:31:57;;;;;;;7.90;5.83;;;14.10;99.90;;;;;;5033326;28;20463;-88
2022/04/27 04:34:23;;;;;;;8.40;5.10;;;14.10;99.90;;;;;;5033085;28;20498;-88
2022/04/27 04:36:49;;;;;;;6.10;4.50;;;14.10;99.90;;;;;;5051054;28;20463;-91
2022/04/27 04:39:15;;;;;;;8.33;4.57;;;14.10;99.90;;;;;;5034142;28;20181;-90
2022/04/27 04:41:40;;;;;;;6.07;4.77;;;14.10;99.90;;;;;;5056319;28;20178;-88
2022/04/27 04:44:06;;;;;;;7.83;5.30;;;14.10;99.90;;;;;;5039796;28;20178;-91
2022/04/27 04:46:32;;;;;;;5.50;5.00;;;14.10;99.90;;;;;;5039216;28;20190;-88
2022/04/27 04:48:57;;;;;;;5.33;4.50;;;14.10;99.90;;;;;;5038882;28;20252;-90
2022/04/27 04:51:23;;;;;;;7.73;5.47;;;14.10;99.90;;;;;;5055460;28;20686;-89
2022/04/27 04:53:49;;;;;;;8.00;5.50;;;14.20;99.90;;;;;;5039116;28;20173;-87
2022/04/27 04:56:14;;;;;;;9.27;6.33;;;14.20;99.90;;;;;;5040354;27;20193;-88
2022/04/27 04:58:40;;;;;;;10.40;6.20;;;14.20;99.90;;;;;;5093073;27;20179;-88
2022/04/27 05:01:06;;;;;;;9.23;5.50;;;14.20;99.90;;;;;;5039482;28;20205;-91
2022/04/27 05:03:36;;;;;;;8.80;5.83;;;14.10;99.90;;;;;;5109380;27;20195;-88
2022/04/27 05:06:02;;;;;;;8.00;5.43;;;14.10;99.90;;;;;;5039044;28;20530;-88
2022/04/27 05:08:28;;;;;;;9.83;5.60;;;14.10;99.90;;;;;;5034256;27;20447;-88
2022/04/27 05:10:54;;;;;;;11.10;7.30;;;14.10;99.90;;;;;;5067387;27;20881;-91
2022/04/27 05:13:19;;;;;;;10.73;6.30;;;14.20;99.90;;;;;;5077421;28;20210;-91
2022/04/27 05:15:45;;;;;;;9.20;6.60;;;14.20;99.90;;;;;;5057511;28;20436;-91
2022/04/27 05:18:11;;;;;;;9.70;6.23;;;14.20;99.90;;;;;;5012172;28;20217;-91
2022/04/27 05:20:38;;;;;;;10.13;6.53;;;14.20;99.90;;;;;;5110672;27;20224;-88
2022/04/27 05:23:04;;;;;;;13.00;6.50;;;14.30;99.90;;;;;;5118061;27;20213;-87
2022/04/27 05:25:30;;;;;;;9.87;6.33;;;14.30;99.90;;;;;;5083583;27;20434;-88
2022/04/27 05:27:56;;;;;;;10.17;6.53;;;14.40;99.90;;;;;;5057606;27;20447;-90
2022/04/27 05:33:06;;;;;;;10.40;7.80;;;14.40;99.90;;;;;;5058093;27;20202;-90
2022/04/27 05:35:39;;;;;;;10.10;7.07;;;14.50;99.90;;;;;;5139047;27;20908;-88
2022/04/27 05:38:05;;;;;;;12.17;7.87;;;14.50;99.90;;;;;;5115671;27;20202;-88
2022/04/27 05:40:30;;;;;;;17.13;7.60;;;14.60;99.90;;;;;;5116058;27;20438;-88
2022/04/27 05:42:57;;;;;;;13.53;8.20;;;14.70;99.90;;;;;;5114466;27;20187;-87
2022/04/27 05:45:24;;;;;;;9.77;7.30;;;14.70;99.90;;;;;;5055205;28;20228;-91
2022/04/27 05:47:49;;;;;;;13.37;8.50;;;14.80;99.90;;;;;;5013557;27;20460;-88
2022/04/27 05:50:15;;;;;;;10.10;7.30;;;14.90;99.90;;;;;;5096728;27;20516;-87
2022/04/27 05:52:49;;;;;;;12.83;7.80;;;14.90;99.90;;;;;;5133943;27;20270;-88
2022/04/27 05:55:15;;;;;;;13.60;7.40;;;15.00;99.90;;;;;;5139682;27;21577;-88
2022/04/27 05:57:40;;;;;;;11.93;7.23;;;15.00;99.90;;;;;;5132641;27;20419;-87
2022/04/27 06:00:07;;;;;;;15.43;8.40;;;15.10;99.90;;;;;;5105258;27;20423;-91
2022/04/27 06:02:33;;;;;;;18.00;8.53;;;15.20;99.90;;;;;;5032112;28;20198;-88
2022/04/27 06:04:59;;;;;;;13.17;8.87;;;15.30;99.90;;;;;;5054141;28;20423;-88
2022/04/27 06:07:25;;;;;;;12.00;7.23;;;15.30;99.90;;;;;;5014984;28;20446;-91
2022/04/27 06:09:50;;;;;;;12.30;7.60;;;15.40;99.90;;;;;;5015586;28;20591;-88
2022/04/27 06:12:17;;;;;;;10.10;7.90;;;15.50;99.90;;;;;;5072759;28;20457;-88
2022/04/27 06:14:44;;;;;;;12.60;7.60;;;15.60;99.90;;;;;;5074099;28;20416;-87
2022/04/27 06:17:09;;;;;;;11.93;7.40;;;15.60;99.90;;;;;;5018492;28;20456;-87
2022/04/27 06:19:35;;;;;;;9.70;6.63;;;15.70;99.90;;;;;;5011152;28;20428;-87
2022/04/27 06:22:01;;;;;;;12.60;8.13;;;15.80;99.90;;;;;;5051924;28;20585;-87
2022/04/27 06:24:28;;;;;;;14.10;8.10;;;15.90;99.90;;;;;;5034287;28;20219;-90
2022/04/27 06:26:54;;;;;;;12.70;8.27;;;15.90;99.90;;;;;;5063333;27;20229;-91
2022/04/27 06:29:20;;;;;;;9.40;6.50;;;16.10;99.90;;;;;;5101538;27;20467;-89
2022/04/27 06:31:46;;;;;;;9.43;7.90;;;16.10;99.90;;;;;;5019693;28;20856;-91
2022/04/27 06:34:12;;;;;;;11.40;7.37;;;16.20;99.90;;;;;;5030770;27;20431;-90
2022/04/27 06:36:39;;;;;;;8.80;6.47;;;16.30;99.90;;;;;;5042735;28;20186;-91
2022/04/27 06:39:07;;;;;;;9.50;6.83;;;16.40;99.90;;;;;;5030239;28;20450;-90
2022/04/27 06:41:33;;;;;;;10.50;6.70;;;16.50;99.90;;;;;;5013671;28;20435;-91
2022/04/27 06:43:59;;;;;;;10.67;7.17;;;16.60;99.90;;;;;;5032040;28;20407;-90
2022/04/27 06:46:24;;;;;;;9.17;6.07;;;16.60;99.90;;;;;;5007134;28;21010;-91
2022/04/27 06:48:50;;;;;;;9.47;6.93;;;16.70;99.90;;;;;;5014392;28;20211;-91
2022/04/27 06:51:18;;;;;;;11.13;7.40;;;16.80;99.90;;;;;;5014007;28;20397;-90
2022/04/27 06:53:44;;;;;;;10.67;7.10;;;16.80;99.90;;;;;;5028910;28;20195;-88
2022/04/27 06:56:10;;;;;;;10.13;5.67;;;16.90;99.90;;;;;;5011182;28;20506;-88
2022/04/27 06:58:36;;;;;;;8.30;6.17;;;17.00;99.90;;;;;;5001078;28;20667;-88
2022/04/27 07:01:05;;;;;;;7.83;6.50;;;17.10;99.90;;;;;;4989535;28;20277;-87
2022/04/27 07:03:32;;;;;;;10.53;7.00;;;17.20;99.90;;;;;;5078575;27;20207;-88
2022/04/27 07:05:58;;;;;;;7.87;6.20;;;17.30;99.90;;;;;;5030655;28;20510;-87
2022/04/27 07:08:25;;;;;;;9.10;6.30;;;17.40;99.90;;;;;;5052259;28;20492;-90
2022/04/27 07:10:51;;;;;;;8.47;6.00;;;17.40;99.90;;;;;;5071258;27;20482;-91
2022/04/27 07:13:17;;;;;;;7.30;5.27;;;17.50;99.90;;;;;;5007714;28;20467;-91
2022/04/27 07:15:42;;;;;;;7.10;5.40;;;17.60;99.90;;;;;;5006407;28;20198;-91
2022/04/27 07:18:08;;;;;;;9.50;5.63;;;17.60;99.90;;;;;;5029655;28;20190;-91
2022/04/27 07:20:34;;;;;;;7.80;5.17;;;17.70;99.90;;;;;;5012744;28;20209;-92
2022/04/27 07:22:59;;;;;;;7.33;5.03;;;17.70;99.90;;;;;;5014198;28;20556;-91
2022/04/27 07:25:25;;;;;;;8.63;5.50;;;17.80;99.90;;;;;;5013609;28;20643;-88
2022/04/27 07:27:51;;;;;;;6.07;4.80;;;17.90;99.90;;;;;;5029209;28;20199;-87
2022/04/27 07:30:16;;;;;;;6.87;4.87;;;18.00;99.90;;;;;;5038338;27;20218;-90
2022/04/27 07:32:44;;;;;;;7.10;4.90;;;18.10;99.90;;;;;;5014656;28;21077;-88
2022/04/27 07:35:10;;;;;;;7.30;4.60;;;18.10;99.90;;;;;;5011411;28;20179;-88
2022/04/27 07:37:37;;;;;;;8.13;5.27;;;18.20;99.90;;;;;;5007310;28;20963;-88
2022/04/27 07:40:06;;;;;;;9.73;5.70;;;18.30;99.90;;;;;;5010434;28;20707;-86
2022/04/27 07:42:32;;;;;;;8.83;4.77;;;18.30;99.90;;;;;;5012016;28;20463;-92
2022/04/27 07:44:58;;;;;;;7.13;5.07;;;18.40;99.90;;;;;;5013224;28;20412;-87
2022/04/27 07:47:24;;;;;;;7.07;4.87;;;18.40;99.90;;;;;;5038895;28;20975;-90
2022/04/27 07:49:49;;;;;;;6.40;4.00;;;18.50;99.90;;;;;;5013295;28;20317;-91
2022/04/27 07:52:15;;;;;;;7.10;4.40;;;18.60;99.90;;;;;;5012785;28;20624;-88
2022/04/27 07:54:42;;;;;;;7.60;4.70;;;18.60;99.90;;;;;;5012493;28;20182;-90
2022/04/27 07:57:08;;;;;;;6.87;4.80;;;18.80;99.90;;;;;;5063974;28;20244;-88
2022/04/27 07:59:34;;;;;;;7.07;4.90;;;18.80;99.90;;;;;;5010617;28;20767;-91
2022/04/27 08:01:59;;;;;;;6.87;5.17;;;18.80;99.90;;;;;;5021873;28;20215;-88
2022/04/27 08:04:25;;;;;;;6.70;5.23;;;18.90;99.90;;;;;;5005792;28;20203;-88
2022/04/27 08:06:51;;;;;;;6.30;5.23;;;18.90;99.90;;;;;;5006529;28;20208;-92
2022/04/27 08:09:16;;;;;;;8.03;5.60;;;19.00;99.90;;;;;;5033522;28;20309;-90
2022/04/27 08:11:42;;;;;;;7.30;5.57;;;19.10;99.90;;;;;;5080940;28;20912;-87
2022/04/27 08:14:08;;;;;;;7.20;4.40;;;19.20;99.90;;;;;;5109303;28;20646;-91
2022/04/27 08:16:34;;;;;;;7.13;4.90;;;19.30;99.90;;;;;;5097644;28;20189;-91
2022/04/27 08:19:00;;;;;;;8.80;5.33;;;19.40;99.90;;;;;;5098239;28;20170;-90
2022/04/27 08:21:27;;;;;;;5.50;4.80;;;19.50;99.90;;;;;;5116698;28;20211;-88
2022/04/27 08:23:53;;;;;;;5.40;3.90;;;19.70;99.90;;;;;;5103599;28;20189;-90
2022/04/27 08:26:19;;;;;;;7.37;4.40;;;19.70;99.90;;;;;;5091018;28;21044;-91
2022/04/27 08:28:45;;;;;;;4.37;3.97;;;19.80;99.90;;;;;;5114252;28;20522;-88
2022/04/27 08:31:13;;;;;;;6.60;4.13;;;19.90;99.90;;;;;;5106437;28;20438;-90
2022/04/27 08:33:39;;;;;;;6.00;4.50;;;20.00;99.90;;;;;;5098198;28;20424;-88
2022/04/27 08:36:08;;;;;;;6.83;5.30;;;20.10;99.90;;;;;;5111217;28;20522;-88
2022/04/27 08:38:35;;;;;;;7.83;5.73;;;20.10;99.90;;;;;;5114914;28;20195;-88
2022/04/27 08:41:02;;;;;;;8.30;5.80;;;20.20;99.90;;;;;;5086807;28;20439;-88
2022/04/27 08:43:27;;;;;;;7.43;5.83;;;20.30;99.90;;;;;;5085089;28;20875;-88
2022/04/27 08:45:55;;;;;;;7.47;5.70;;;20.30;99.90;;;;;;5105662;28;20449;-91
2022/04/27 08:48:21;;;;;;;8.53;5.30;;;20.40;99.90;;;;;;5095513;28;20203;-88
2022/04/27 08:50:48;;;;;;;8.47;4.83;;;20.40;99.90;;;;;;5095865;28;20514;-87
2022/04/27 08:53:14;;;;;;;7.17;4.77;;;20.40;99.90;;;;;;5096843;28;20479;-91
2022/04/27 08:55:41;;;;;;;6.50;4.93;;;20.40;99.90;;;;;;5115164;28;21006;-91
2022/04/27 08:58:12;;;;;;;6.73;4.90;;;20.40;99.90;;;;;;5094315;28;20185;-92
2022/04/27 09:00:39;;;;;;;6.00;4.53;;;20.50;99.90;;;;;;5113706;28;20483;-87
2022/04/27 09:03:29;;;;;;;7.37;4.97;;;20.60;99.90;;;;;;5104907;28;20475;-92
2022/04/27 09:06:10;;;;;;;7.53;5.33;;;20.80;99.90;;;;;;5090152;28;20454;-88
2022/04/27 09:08:45;;;;;;;6.77;4.63;;;21.00;99.90;;;;;;5094757;28;20498;-87
2022/04/27 09:11:13;;;;;;;6.70;4.10;;;21.20;99.90;;;;;;5051065;28;20979;-93
2022/04/27 09:13:40;;;;;;;5.67;4.30;;;21.30;99.90;;;;;;5022510;28;20458;-91
2022/04/27 09:16:06;;;;;;;7.27;4.97;;;21.40;99.90;;;;;;5030781;28;20452;-88
2022/04/27 09:21:58;;;;;;;5.50;3.80;;;21.40;99.90;;;;;;5027844;28;20549;-87
2022/04/27 09:24:24;;;;;;;5.50;3.40;;;21.40;99.90;;;;;;5016890;28;20584;-90
2022/04/27 09:27:12;;;;;;;5.37;4.40;;;21.40;99.90;;;;;;5025967;28;20546;-87
2022/04/27 09:29:38;;;;;;;4.80;3.33;;;21.40;99.90;;;;;;5029282;28;20463;-91
2022/04/27 09:32:06;;;;;;;3.60;3.27;;;21.50;99.90;;;;;;5028625;28;20482;-88
2022/04/27 09:34:43;;;;;;;6.07;3.70;;;21.60;99.90;;;;;;5012007;28;20266;-90
2022/04/27 09:37:17;;;;;;;3.70;3.40;;;21.70;99.90;;;;;;5011736;28;20486;-87
2022/04/27 09:39:45;;;;;;;3.20;2.80;;;21.70;99.90;;;;;;4997503;28;20507;-91
2022/04/27 09:42:13;;;;;;;3.80;3.40;;;21.80;99.90;;;;;;5015954;27;20463;-91
2022/04/27 09:44:40;;;;;;;4.10;3.57;;;21.90;99.90;;;;;;5025709;28;20443;-91
2022/04/27 09:47:08;;;;;;;3.27;2.97;;;22.00;99.90;;;;;;5013240;28;20463;-88
2022/04/27 09:49:39;;;;;;;3.77;3.23;;;22.00;99.90;;;;;;5009930;28;20578;-91
2022/04/27 09:52:06;;;;;;;6.43;4.90;;;22.10;99.90;;;;;;5027365;28;20460;-88
2022/04/27 09:54:36;;;;;;;4.80;4.20;;;22.10;99.90;;;;;;5028668;28;20508;-91
2022/04/27 09:57:04;;;;;;;5.20;4.13;;;22.10;99.90;;;;;;5009323;28;20881;-88
2022/04/27 09:59:35;;;;;;;4.47;3.93;;;22.00;99.90;;;;;;5010175;28;20988;-87
2022/04/27 10:02:13;;;;;;;4.57;3.30;;;21.90;99.90;;;;;;5009833;28;20520;-92
2022/04/27 10:04:43;;;;;;;4.80;3.47;;;21.80;99.90;;;;;;5013229;28;20972;-87
2022/04/27 10:07:10;;;;;;;4.00;3.60;;;21.80;99.90;;;;;;5014896;28;20464;-87
2022/04/27 10:09:36;;;;;;;4.13;3.30;;;21.70;99.90;;;;;;5024358;28;20467;-87
2022/04/27 10:12:04;;;;;;;4.57;3.50;;;21.80;99.90;;;;;;5022781;28;20520;-91
2022/04/27 10:14:30;;;;;;;5.13;4.13;;;21.90;99.90;;;;;;5029581;28;20467;-91
2022/04/27 10:16:56;;;;;;;5.20;3.57;;;21.90;99.90;;;;;;5018352;28;20484;-88
2022/04/27 10:19:23;;;;;;;7.40;3.70;;;21.90;99.90;;;;;;5004186;28;20467;-91
2022/04/27 10:21:57;;;;;;;4.67;4.00;;;21.90;99.90;;;;;;5000207;28;20494;-88
2022/04/27 10:24:37;;;;;;;4.60;3.80;;;21.90;99.90;;;;;;5023289;28;20432;-91
2022/04/27 10:27:17;;;;;;;4.07;3.67;;;21.90;99.90;;;;;;5011849;28;20447;-90
2022/04/27 10:29:46;;;;;;;6.97;3.80;;;21.80;99.90;;;;;;5028924;28;20499;-92
2022/04/27 10:32:12;;;;;;;3.47;3.10;;;21.70;99.90;;;;;;5028631;28;20454;-92
2022/04/27 10:34:37;;;;;;;4.57;3.67;;;21.70;99.90;;;;;;5013157;28;20518;-90
2022/04/27 10:37:03;;;;;;;3.30;3.00;;;21.60;99.90;;;;;;5028474;28;20195;-89
2022/04/27 10:39:31;;;;;;;3.20;2.90;;;21.60;99.90;;;;;;5012319;28;20419;-88
2022/04/27 10:42:03;;;;;;;4.50;2.57;;;21.60;99.90;;;;;;5005202;28;20463;-91
2022/04/27 10:44:47;;;;;;;3.90;2.90;;;21.50;99.90;;;;;;5008749;28;20436;-91
2022/04/27 10:47:14;;;;;;;3.57;3.03;;;21.50;99.90;;;;;;5010878;28;20498;-91
2022/04/27 10:49:40;;;;;;;4.50;3.20;;;21.50;99.90;;;;;;5010121;28;20524;-91
2022/04/27 10:52:10;;;;;;;3.30;2.90;;;21.40;99.90;;;;;;5024580;28;20462;-88
2022/04/27 10:54:38;;;;;;;3.57;2.40;;;21.40;99.90;;;;;;5042145;28;20484;-88
2022/04/27 10:57:19;;;;;;;2.50;2.30;;;21.40;99.90;;;;;;5066230;27;20516;-91
2022/04/27 10:59:47;;;;;;;3.90;3.10;;;21.40;99.90;;;;;;5031512;27;20518;-87
2022/04/27 11:02:35;;;;;;;4.73;2.60;;;21.50;99.90;;;;;;5023947;28;20483;-91
2022/04/27 11:05:21;;;;;;;2.60;2.37;;;21.50;99.90;;;;;;5025071;28;20423;-91
2022/04/27 11:07:53;;;;;;;3.00;2.67;;;21.50;99.90;;;;;;5011118;27;20435;-91
2022/04/27 11:10:21;;;;;;;2.40;2.20;;;21.40;99.90;;;;;;5025930;28;20490;-88
2022/04/27 11:12:49;;;;;;;3.80;3.30;;;21.40;99.90;;;;;;5035099;28;21107;-92
2022/04/27 11:15:23;;;;;;;3.20;2.30;;;21.30;99.90;;;;;;5005856;28;20493;-88
2022/04/27 11:18:03;;;;;;;2.10;2.00;;;21.30;99.90;;;;;;5024723;28;20432;-87
2022/04/27 11:20:29;;;;;;;2.77;2.57;;;21.20;99.90;;;;;;5026049;28;20463;-87
2022/04/27 11:23:03;;;;;;;3.00;2.50;;;21.20;99.90;;;;;;5039221;27;20463;-87
2022/04/27 11:25:30;;;;;;;3.43;3.13;;;21.20;99.90;;;;;;5024763;28;20236;-87
2022/04/27 11:28:00;;;;;;;5.10;4.37;;;21.10;99.90;;;;;;5008137;28;20447;-91
2022/04/27 11:30:27;;;;;;;5.40;3.50;;;21.10;99.90;;;;;;5015579;28;20497;-91
2022/04/27 11:32:53;;;;;;;7.77;3.57;;;21.00;99.90;;;;;;5030048;28;20827;-91
2022/04/27 11:35:23;;;;;;;5.30;3.70;;;20.90;99.90;;;;;;5031138;28;20784;-88
2022/04/27 11:37:52;;;;;;;8.03;4.43;;;20.70;99.90;;;;;;5020212;28;20703;-87
2022/04/27 11:40:20;;;;;;;8.70;4.47;;;20.60;99.90;;;;;;5009423;28;20439;-91
2022/04/27 11:42:47;;;;;;;6.50;4.23;;;20.40;99.90;;;;;;5011715;28;20466;-91
2022/04/27 11:45:18;;;;;;;5.77;4.80;;;20.20;99.90;;;;;;5031987;28;20412;-91
2022/04/27 11:47:56;;;;;;;6.87;5.03;;;20.00;99.90;;;;;;5025722;28;20450;-88
2022/04/27 11:50:29;;;;;;;6.20;5.00;;;19.90;99.90;;;;;;5026056;28;20510;-87
2022/04/27 11:53:16;;;;;;;7.30;5.20;;;19.80;99.90;;;;;;5028955;28;20461;-91
2022/04/27 11:55:43;;;;;;;5.90;4.80;;;19.60;99.90;;;;;;5010225;28;20522;-91
2022/04/27 11:58:09;;;;;;;11.93;6.30;;;19.50;99.90;;;;;;5009040;28;20520;-87
2022/04/27 12:00:35;;;;;;;6.90;5.10;;;19.40;99.90;;;;;;5039815;27;20869;-91
2022/04/27 12:03:03;;;;;;;6.97;6.23;;;19.40;99.90;;;;;;5033329;27;20453;-91
2022/04/27 12:05:33;;;;;;;6.87;5.40;;;19.30;99.90;;;;;;5032060;28;20440;-91
2022/04/27 12:08:01;;;;;;;7.90;6.37;;;19.10;99.90;;;;;;5014680;28;20432;-92
2022/04/27 12:10:31;;;;;;;13.87;6.10;;;19.00;99.90;;;;;;5050403;27;20498;-91
2022/04/27 12:13:00;;;;;;;10.27;5.97;;;18.90;99.90;;;;;;5102250;27;20510;-91
2022/04/27 12:15:27;;;;;;;8.00;5.10;;;18.80;99.90;;;;;;5111473;27;20434;-90
2022/04/27 12:17:57;;;;;;;8.43;5.97;;;18.70;99.90;;;;;;5108406;27;20492;-91
2022/04/27 12:20:26;;;;;;;10.80;6.87;;;18.60;99.90;;;;;;5124782;27;20434;-91
2022/04/27 12:22:54;;;;;;;11.87;7.50;;;18.50;99.90;;;;;;5117643;27;20453;-91
2022/04/27 12:25:20;;;;;;;10.00;7.10;;;18.40;99.90;;;;;;5101223;27;20490;-90
2022/04/27 12:27:48;;;;;;;8.77;6.70;;;18.30;99.90;;;;;;5099977;27;20444;-91
2022/04/27 12:30:19;;;;;;;6.50;5.13;;;18.20;99.90;;;;;;5100854;27;20469;-91
2022/04/27 12:32:45;;;;;;;6.43;5.50;;;18.20;99.90;;;;;;5117204;27;20573;-91
2022/04/27 12:37:55;;;;;;;8.27;5.40;;;18.00;99.90;;;;;;5125563;27;20450;-87
2022/04/27 12:40:21;;;;;;;10.60;6.40;;;17.90;99.90;;;;;;5097898;27;20437;-87
2022/04/27 12:43:07;;;;;;;8.77;7.03;;;17.80;99.90;;;;;;5092821;27;20195;-87
2022/04/27 12:45:35;;;;;;;10.10;7.60;;;17.80;99.90;;;;;;5090896;28;20903;-91
2022/04/27 12:48:03;;;;;;;10.70;7.73;;;17.70;99.90;;;;;;5120150;27;20439;-87
2022/04/27 12:50:29;;;;;;;15.43;10.90;;;17.60;99.90;;;;;;5090359;28;20571;-87
2022/04/27 12:53:11;;;;;;;12.33;8.60;;;17.50;99.90;;;;;;5110163;27;20467;-87
2022/04/27 12:55:37;;;;;;;14.37;10.20;;;17.40;99.90;;;;;;5105624;27;20474;-87
2022/04/27 12:58:04;;;;;;;16.00;10.60;;;17.30;99.90;;;;;;5099133;28;20476;-91
2022/04/27 13:00:43;;;;;;;18.07;13.50;;;17.20;99.90;;;;;;5096539;28;20999;-90
2022/04/27 13:03:10;;;;;;;18.30;12.67;;;17.20;99.90;;;;;;5122875;27;20816;-91